sensor_id;sensor_type;location;lat;lon;timestamp;pressure;altitude;pressure_sealevel;temperature;humidity
56811;BME280;42691;47.234;27.494;2023-02-13T00:00:44;101468.06;;;6.98;100.00
56811;BME280;42691;47.234;27.494;2023-02-13T00:03:09;101453.41;;;6.94;100.00
56811;BME280;42691;47.234;27.494;2023-02-13T00:05:35;101460.31;;;6.93;100.00
56811;BME280;42691;47.234;27.494;2023-02-13T00:08:00;101416.44;;;6.67;100.00
56811;BME280;42691;47.234;27.494;2023-02-13T00:10:25;101440.53;;;6.81;100.00
56811;BME280;42691;47.234;27.494;2023-02-13T00:12:51;101437.97;;;6.80;100.00
56811;BME280;42691;47.234;27.494;2023-02-13T00:15:16;101433.69;;;6.74;100.00
56811;BME280;42691;47.234;27.494;2023-02-13T00:17:42;101446.63;;;6.74;100.00
56811;BME280;42691;47.234;27.494;2023-02-13T00:20:10;101438.84;;;6.68;100.00
56811;BME280;42691;47.234;27.494;2023-02-13T00:22:36;101450.09;;;6.70;100.00
56811;BME280;42691;47.234;27.494;2023-02-13T00:25:06;101448.34;;;6.72;100.00
56811;BME280;42691;47.234;27.494;2023-02-13T00:27:32;101445.75;;;6.72;100.00
56811;BME280;42691;47.234;27.494;2023-02-13T00:29:57;101448.38;;;6.69;100.00
56811;BME280;42691;47.234;27.494;2023-02-13T00:32:23;101445.78;;;6.69;100.00
56811;BME280;42691;47.234;27.494;2023-02-13T00:34:48;101442.31;;;6.67;100.00
56811;BME280;42691;47.234;27.494;2023-02-13T00:37:14;101444.91;;;6.64;100.00
56811;BME280;42691;47.234;27.494;2023-02-13T00:39:40;101426.84;;;6.53;100.00
56811;BME280;42691;47.234;27.494;2023-02-13T00:42:06;101445.78;;;6.60;100.00
56811;BME280;42691;47.234;27.494;2023-02-13T00:44:31;101441.47;;;6.61;100.00
56811;BME280;42691;47.234;27.494;2023-02-13T00:46:57;101444.06;;;6.61;100.00
56811;BME280;42691;47.234;27.494;2023-02-13T00:49:22;101425.16;;;6.48;100.00
56811;BME280;42691;47.234;27.494;2023-02-13T00:51:48;101451.84;;;6.57;100.00
56811;BME280;42691;47.234;27.494;2023-02-13T00:54:13;101444.94;;;6.56;100.00
56811;BME280;42691;47.234;27.494;2023-02-13T00:56:39;101448.41;;;6.51;100.00
56811;BME280;42691;47.234;27.494;2023-02-13T00:59:04;101450.13;;;6.52;100.00
56811;BME280;42691;47.234;27.494;2023-02-13T01:01:30;101444.09;;;6.53;100.00
56811;BME280;42691;47.234;27.494;2023-02-13T01:03:55;101438.94;;;6.53;100.00
56811;BME280;42691;47.234;27.494;2023-02-13T01:06:20;101438.06;;;6.51;100.00
56811;BME280;42691;47.234;27.494;2023-02-13T01:08:46;101425.16;;;6.45;100.00
56811;BME280;42691;47.234;27.494;2023-02-13T01:11:12;101431.19;;;6.47;100.00
56811;BME280;42691;47.234;27.494;2023-02-13T01:13:37;101437.25;;;6.43;100.00
56811;BME280;42691;47.234;27.494;2023-02-13T01:16:03;101431.22;;;6.41;100.00
56811;BME280;42691;47.234;27.494;2023-02-13T01:18:29;101426.91;;;6.38;100.00
56811;BME280;42691;47.234;27.494;2023-02-13T01:20:59;101432.09;;;6.37;100.00
56811;BME280;42691;47.234;27.494;2023-02-13T01:23:26;101429.53;;;6.34;100.00
56811;BME280;42691;47.234;27.494;2023-02-13T01:25:53;101406.28;;;6.21;100.00
56811;BME280;42691;47.234;27.494;2023-02-13T01:28:18;101423.47;;;6.32;100.00
56811;BME280;42691;47.234;27.494;2023-02-13T01:30:44;101430.38;;;6.31;100.00
56811;BME280;42691;47.234;27.494;2023-02-13T01:33:10;101429.50;;;6.29;100.00
56811;BME280;42691;47.234;27.494;2023-02-13T01:35:38;101426.06;;;6.27;100.00
56811;BME280;42691;47.234;27.494;2023-02-13T01:38:04;101423.47;;;6.28;100.00
56811;BME280;42691;47.234;27.494;2023-02-13T01:40:29;101424.34;;;6.27;100.00
56811;BME280;42691;47.234;27.494;2023-02-13T01:42:56;101424.38;;;6.23;100.00
56811;BME280;42691;47.234;27.494;2023-02-13T01:45:28;101417.50;;;6.17;100.00
56811;BME280;42691;47.234;27.494;2023-02-13T01:48:15;101423.50;;;6.22;100.00
56811;BME280;42691;47.234;27.494;2023-02-13T01:50:46;101422.63;;;6.23;100.00
56811;BME280;42691;47.234;27.494;2023-02-13T01:53:29;101416.59;;;6.24;100.00
56811;BME280;42691;47.234;27.494;2023-02-13T01:56:01;101419.16;;;6.29;100.00
56811;BME280;42691;47.234;27.494;2023-02-13T01:58:32;101417.44;;;6.31;100.00
56811;BME280;42691;47.234;27.494;2023-02-13T02:01:00;101423.50;;;6.35;100.00
56811;BME280;42691;47.234;27.494;2023-02-13T02:03:34;101421.78;;;6.34;100.00
56811;BME280;42691;47.234;27.494;2023-02-13T02:06:01;101414.00;;;6.29;100.00
56811;BME280;42691;47.234;27.494;2023-02-13T02:08:27;101387.38;;;6.12;100.00
56811;BME280;42691;47.234;27.494;2023-02-13T02:10:55;101405.41;;;6.25;100.00
56811;BME280;42691;47.234;27.494;2023-02-13T02:13:22;101416.59;;;6.24;100.00
56811;BME280;42691;47.234;27.494;2023-02-13T02:15:48;101412.28;;;6.28;100.00
56811;BME280;42691;47.234;27.494;2023-02-13T02:18:17;101407.16;;;6.19;100.00
56811;BME280;42691;47.234;27.494;2023-02-13T02:40:46;101410.63;;;6.13;100.00
56811;BME280;42691;47.234;27.494;2023-02-13T02:48:43;101409.75;;;6.17;100.00
56811;BME280;42691;47.234;27.494;2023-02-13T02:51:45;101401.97;;;6.17;100.00
56811;BME280;42691;47.234;27.494;2023-02-13T02:57:09;101406.31;;;6.09;100.00
56811;BME280;42691;47.234;27.494;2023-02-13T02:59:36;101389.97;;;6.01;100.00
56811;BME280;42691;47.234;27.494;2023-02-13T03:02:22;101411.50;;;6.08;100.00
56811;BME280;42691;47.234;27.494;2023-02-13T03:05:20;101408.06;;;5.97;100.00
56811;BME280;42691;47.234;27.494;2023-02-13T03:08:05;101409.78;;;5.96;100.00
56811;BME280;42691;47.234;27.494;2023-02-13T03:10:34;101414.94;;;5.91;100.00
56811;BME280;42691;47.234;27.494;2023-02-13T03:13:41;101405.44;;;5.87;100.00
56811;BME280;42691;47.234;27.494;2023-02-13T03:16:16;101409.75;;;5.85;100.00
56811;BME280;42691;47.234;27.494;2023-02-13T03:19:01;101380.53;;;5.70;100.00
56811;BME280;42691;47.234;27.494;2023-02-13T03:21:49;101407.19;;;5.82;100.00
56811;BME280;42691;47.234;27.494;2023-02-13T03:39:17;101416.66;;;5.86;100.00
56811;BME280;42691;47.234;27.494;2023-02-13T03:41:49;101414.91;;;5.87;100.00
56811;BME280;42691;47.234;27.494;2023-02-13T03:44:50;101419.22;;;5.85;100.00
56811;BME280;42691;47.234;27.494;2023-02-13T03:47:40;101420.09;;;5.84;100.00
56811;BME280;42691;47.234;27.494;2023-02-13T03:50:08;101420.94;;;5.87;100.00
56811;BME280;42691;47.234;27.494;2023-02-13T03:55:27;101420.09;;;5.79;100.00
56811;BME280;42691;47.234;27.494;2023-02-13T03:58:16;101408.91;;;5.79;100.00
56811;BME280;42691;47.234;27.494;2023-02-13T04:01:05;101420.97;;;5.90;100.00
56811;BME280;42691;47.234;27.494;2023-02-13T04:06:30;101428.69;;;5.89;100.00
56811;BME280;42691;47.234;27.494;2023-02-13T04:08:56;101433.03;;;5.93;100.00
56811;BME280;42691;47.234;27.494;2023-02-13T04:14:11;101429.59;;;5.97;100.00
56811;BME280;42691;47.234;27.494;2023-02-13T04:16:42;101421.81;;;5.94;100.00
56811;BME280;42691;47.234;27.494;2023-02-13T04:19:09;101423.53;;;5.89;100.00
56811;BME280;42691;47.234;27.494;2023-02-13T04:21:37;101428.72;;;5.92;100.00
56811;BME280;42691;47.234;27.494;2023-02-13T04:24:04;101430.41;;;5.87;100.00
56811;BME280;42691;47.234;27.494;2023-02-13T04:26:40;101424.41;;;5.82;100.00
56811;BME280;42691;47.234;27.494;2023-02-13T04:29:07;101416.66;;;5.77;100.00
56811;BME280;42691;47.234;27.494;2023-02-13T04:31:33;101431.28;;;5.86;100.00
56811;BME280;42691;47.234;27.494;2023-02-13T04:33:58;101425.25;;;5.81;100.00
56811;BME280;42691;47.234;27.494;2023-02-13T04:36:24;101426.13;;;5.80;100.00
56811;BME280;42691;47.234;27.494;2023-02-13T04:38:49;101409.78;;;5.73;100.00
56811;BME280;42691;47.234;27.494;2023-02-13T04:41:15;101420.97;;;5.72;100.00
56811;BME280;42691;47.234;27.494;2023-02-13T04:43:41;101426.13;;;5.71;100.00
56811;BME280;42691;47.234;27.494;2023-02-13T04:46:06;101421.81;;;5.73;100.00
56811;BME280;42691;47.234;27.494;2023-02-13T04:48:32;101421.81;;;5.76;100.00
56811;BME280;42691;47.234;27.494;2023-02-13T04:50:57;101420.97;;;5.75;100.00
56811;BME280;42691;47.234;27.494;2023-02-13T04:53:22;101425.25;;;5.78;100.00
56811;BME280;42691;47.234;27.494;2023-02-13T04:55:48;101420.97;;;5.77;100.00
56811;BME280;42691;47.234;27.494;2023-02-13T04:58:14;101422.69;;;5.76;100.00
56811;BME280;42691;47.234;27.494;2023-02-13T05:00:39;101408.94;;;5.68;100.00
56811;BME280;42691;47.234;27.494;2023-02-13T05:03:10;101418.38;;;5.77;100.00
56811;BME280;42691;47.234;27.494;2023-02-13T05:05:36;101416.66;;;5.79;100.00
56811;BME280;42691;47.234;27.494;2023-02-13T05:08:03;101420.09;;;5.81;100.00
56811;BME280;42691;47.234;27.494;2023-02-13T05:10:29;101420.09;;;5.87;100.00
56811;BME280;42691;47.234;27.494;2023-02-13T05:12:55;101422.69;;;5.84;100.00
56811;BME280;42691;47.234;27.494;2023-02-13T05:15:20;101417.50;;;5.79;100.00
56811;BME280;42691;47.234;27.494;2023-02-13T05:17:48;101428.69;;;5.83;100.00
56811;BME280;42691;47.234;27.494;2023-02-13T05:20:14;101424.41;;;5.82;100.00
56811;BME280;42691;47.234;27.494;2023-02-13T05:22:44;101418.38;;;5.80;100.00
56811;BME280;42691;47.234;27.494;2023-02-13T05:25:28;101414.06;;;5.80;100.00
56811;BME280;42691;47.234;27.494;2023-02-13T05:27:53;101392.56;;;5.64;100.00
56811;BME280;42691;47.234;27.494;2023-02-13T05:30:19;101411.50;;;5.79;100.00
56811;BME280;42691;47.234;27.494;2023-02-13T05:32:44;101409.78;;;5.78;100.00
56811;BME280;42691;47.234;27.494;2023-02-13T05:35:10;101390.84;;;5.62;100.00
56811;BME280;42691;47.234;27.494;2023-02-13T05:37:36;101416.66;;;5.79;100.00
56811;BME280;42691;47.234;27.494;2023-02-13T05:40:01;101418.38;;;5.80;100.00
56811;BME280;42691;47.234;27.494;2023-02-13T05:42:27;101416.66;;;5.79;100.00
56811;BME280;42691;47.234;27.494;2023-02-13T05:44:52;101416.66;;;5.82;100.00
56811;BME280;42691;47.234;27.494;2023-02-13T05:47:17;101423.53;;;5.83;100.00
56811;BME280;42691;47.234;27.494;2023-02-13T05:49:43;101416.66;;;5.85;100.00
56811;BME280;42691;47.234;27.494;2023-02-13T05:52:08;101418.34;;;5.89;100.00
56811;BME280;42691;47.234;27.494;2023-02-13T05:54:34;101418.41;;;5.97;100.00
56811;BME280;42691;47.234;27.494;2023-02-13T05:56:59;101400.31;;;5.97;100.00
56811;BME280;42691;47.234;27.494;2023-02-13T05:59:25;101420.09;;;6.14;100.00
56811;BME280;42691;47.234;27.494;2023-02-13T06:01:50;101414.88;;;6.28;100.00
56811;BME280;42691;47.234;27.494;2023-02-13T06:04:16;101417.44;;;6.37;100.00
56811;BME280;42691;47.234;27.494;2023-02-13T06:06:41;101413.09;;;6.47;100.00
56811;BME280;42691;47.234;27.494;2023-02-13T06:09:07;101416.50;;;6.58;100.00
56811;BME280;42691;47.234;27.494;2023-02-13T06:11:32;101406.13;;;6.66;100.00
56811;BME280;42691;47.234;27.494;2023-02-13T06:13:58;101408.69;;;6.67;100.00
56811;BME280;42691;47.234;27.494;2023-02-13T06:16:23;101410.41;;;6.73;100.00
56811;BME280;42691;47.234;27.494;2023-02-13T06:18:49;101416.44;;;6.76;100.00
56811;BME280;42691;47.234;27.494;2023-02-13T06:21:14;101413.88;;;6.73;100.00
56811;BME280;42691;47.234;27.494;2023-02-13T06:23:40;101402.69;;;6.64;100.00
56811;BME280;42691;47.234;27.494;2023-02-13T06:26:07;101414.69;;;6.81;100.00
56811;BME280;42691;47.234;27.494;2023-02-13T06:28:33;101399.16;;;6.81;100.00
56811;BME280;42691;47.234;27.494;2023-02-13T06:30:59;101412.03;;;6.90;100.00
56811;BME280;42691;47.234;27.494;2023-02-13T06:33:24;101408.53;;;6.99;100.00
56811;BME280;42691;47.234;27.494;2023-02-13T06:35:50;101406.75;;;7.12;100.00
56811;BME280;42691;47.234;27.494;2023-02-13T06:38:15;101405.78;;;7.27;100.00
56811;BME280;42691;47.234;27.494;2023-02-13T06:40:46;101403.97;;;7.36;100.00
56811;BME280;42691;47.234;27.494;2023-02-13T06:43:13;101402.19;;;7.46;100.00
56811;BME280;42691;47.234;27.494;2023-02-13T06:45:39;101407.34;;;7.50;100.00
56811;BME280;42691;47.234;27.494;2023-02-13T06:48:05;101407.25;;;7.60;100.00
56811;BME280;42691;47.234;27.494;2023-02-13T06:50:30;101405.53;;;7.59;100.00
56811;BME280;42691;47.234;27.494;2023-02-13T06:52:56;101416.69;;;7.67;100.00
56811;BME280;42691;47.234;27.494;2023-02-13T06:55:21;101407.19;;;7.66;100.00
56811;BME280;42691;47.234;27.494;2023-02-13T06:57:47;101389.94;;;7.65;100.00
56811;BME280;42691;47.234;27.494;2023-02-13T07:00:14;101407.06;;;7.78;100.00
56811;BME280;42691;47.234;27.494;2023-02-13T07:02:41;101404.50;;;7.76;100.00
56811;BME280;42691;47.234;27.494;2023-02-13T07:05:07;101415.69;;;7.84;100.00
56811;BME280;42691;47.234;27.494;2023-02-13T07:07:34;101417.28;;;7.96;100.00
56811;BME280;42691;47.234;27.494;2023-02-13T07:10:00;101413.81;;;7.97;100.00
56811;BME280;42691;47.234;27.494;2023-02-13T07:12:26;101415.59;;;7.92;100.00
56811;BME280;42691;47.234;27.494;2023-02-13T07:14:51;101410.38;;;7.95;100.00
56811;BME280;42691;47.234;27.494;2023-02-13T07:17:17;101408.63;;;7.99;100.00
56811;BME280;42691;47.234;27.494;2023-02-13T07:19:42;101405.97;;;8.03;100.00
56811;BME280;42691;47.234;27.494;2023-02-13T07:22:08;101401.63;;;8.05;100.00
56811;BME280;42691;47.234;27.494;2023-02-13T07:24:33;101408.47;;;8.12;100.00
56811;BME280;42691;47.234;27.494;2023-02-13T07:27:00;101407.59;;;8.13;100.00
56811;BME280;42691;47.234;27.494;2023-02-13T07:29:26;101399.78;;;8.16;100.00
56811;BME280;42691;47.234;27.494;2023-02-13T07:31:51;101404.97;;;8.16;100.00
56811;BME280;42691;47.234;27.494;2023-02-13T07:34:17;101395.47;;;8.19;100.00
56811;BME280;42691;47.234;27.494;2023-02-13T07:36:42;101395.47;;;8.15;100.00
56811;BME280;42691;47.234;27.494;2023-02-13T07:39:08;101394.59;;;8.16;100.00
56811;BME280;42691;47.234;27.494;2023-02-13T07:41:33;101393.72;;;8.21;100.00
56811;BME280;42691;47.234;27.494;2023-02-13T07:43:58;101392.78;;;8.28;100.00
56811;BME280;42691;47.234;27.494;2023-02-13T07:46:24;101394.53;;;8.26;100.00
56811;BME280;42691;47.234;27.494;2023-02-13T07:48:52;101394.56;;;8.23;100.00
56811;BME280;42691;47.234;27.494;2023-02-13T07:51:18;101396.28;;;8.24;100.00
56811;BME280;42691;47.234;27.494;2023-02-13T07:53:43;101397.03;;;8.32;100.00
56811;BME280;42691;47.234;27.494;2023-02-13T07:56:09;101394.44;;;8.35;100.00
56811;BME280;42691;47.234;27.494;2023-02-13T07:58:36;101396.13;;;8.37;100.00
56811;BME280;42691;47.234;27.494;2023-02-13T08:01:06;101396.13;;;8.39;100.00
56811;BME280;42691;47.234;27.494;2023-02-13T08:03:32;101397.78;;;8.43;100.00
56811;BME280;42691;47.234;27.494;2023-02-13T08:05:57;101396.09;;;8.42;100.00
56811;BME280;42691;47.234;27.494;2023-02-13T08:08:23;101391.78;;;8.39;100.00
56811;BME280;42691;47.234;27.494;2023-02-13T08:10:48;101372.81;;;8.37;100.00
56811;BME280;42691;47.234;27.494;2023-02-13T08:13:32;101394.31;;;8.45;100.00
56811;BME280;42691;47.234;27.494;2023-02-13T08:15:57;101389.81;;;8.60;100.00
56811;BME280;42691;47.234;27.494;2023-02-13T08:18:23;101393.78;;;10.84;100.00
56811;BME280;42691;47.234;27.494;2023-02-13T08:20:48;101384.38;;;10.35;100.00
56811;BME280;42691;47.234;27.494;2023-02-13T08:23:14;101390.19;;;10.01;100.00
56811;BME280;42691;47.234;27.494;2023-02-13T08:25:39;101389.50;;;9.92;100.00
56811;BME280;42691;47.234;27.494;2023-02-13T08:28:05;101385.47;;;9.76;100.00
56811;BME280;42691;47.234;27.494;2023-02-13T08:30:31;101387.34;;;9.66;100.00
56811;BME280;42691;47.234;27.494;2023-02-13T08:32:56;101384.88;;;9.58;100.00
56811;BME280;42691;47.234;27.494;2023-02-13T08:35:23;101384.13;;;9.52;100.00
56811;BME280;42691;47.234;27.494;2023-02-13T08:37:51;101384.94;;;9.55;100.00
56811;BME280;42691;47.234;27.494;2023-02-13T08:40:17;101352.69;;;9.15;100.00
56811;BME280;42691;47.234;27.494;2023-02-13T08:42:42;101372.41;;;9.29;100.00
56811;BME280;42691;47.234;27.494;2023-02-13T08:45:08;101367.22;;;9.26;100.00
56811;BME280;42691;47.234;27.494;2023-02-13T08:47:36;101356.84;;;9.26;100.00
56811;BME280;42691;47.234;27.494;2023-02-13T08:50:02;101351.63;;;9.29;100.00
56811;BME280;42691;47.234;27.494;2023-02-13T08:52:27;101355.00;;;9.34;100.00
56811;BME280;42691;47.234;27.494;2023-02-13T08:54:53;101356.66;;;9.38;100.00
56811;BME280;42691;47.234;27.494;2023-02-13T08:57:19;101361.00;;;9.38;100.00
56811;BME280;42691;47.234;27.494;2023-02-13T08:59:45;101351.59;;;9.31;100.00
56811;BME280;42691;47.234;27.494;2023-02-13T09:02:10;101360.19;;;9.34;100.00
56811;BME280;42691;47.234;27.494;2023-02-13T09:04:36;101357.59;;;9.34;100.00
56811;BME280;42691;47.234;27.494;2023-02-13T09:07:02;101340.34;;;9.30;100.00
56811;BME280;42691;47.234;27.494;2023-02-13T09:09:27;101347.13;;;9.39;100.00
56811;BME280;42691;47.234;27.494;2023-02-13T09:11:52;101353.44;;;9.23;100.00
56811;BME280;42691;47.234;27.494;2023-02-13T09:14:22;101352.56;;;9.22;100.00
56811;BME280;42691;47.234;27.494;2023-02-13T09:16:47;101355.25;;;9.18;100.00
56811;BME280;42691;47.234;27.494;2023-02-13T09:19:13;101352.53;;;9.25;100.00
56811;BME280;42691;47.234;27.494;2023-02-13T09:21:38;101343.13;;;9.18;100.00
56811;BME280;42691;47.234;27.494;2023-02-13T09:24:07;101334.50;;;9.16;100.00
56811;BME280;42691;47.234;27.494;2023-02-13T09:26:32;101322.44;;;9.14;100.00
56811;BME280;42691;47.234;27.494;2023-02-13T09:28:57;101338.56;;;9.34;100.00
56811;BME280;42691;47.234;27.494;2023-02-13T09:31:23;101334.31;;;9.27;100.00
56811;BME280;42691;47.234;27.494;2023-02-13T09:33:49;101328.25;;;9.28;100.00
56811;BME280;42691;47.234;27.494;2023-02-13T09:36:22;101328.38;;;9.20;100.00
56811;BME280;42691;47.234;27.494;2023-02-13T09:38:53;101306.88;;;9.12;100.00
56811;BME280;42691;47.234;27.494;2023-02-13T09:44:00;101320.47;;;9.29;100.00
56811;BME280;42691;47.234;27.494;2023-02-13T09:46:35;101304.97;;;9.22;100.00
56811;BME280;42691;47.234;27.494;2023-02-13T09:49:06;101320.59;;;9.20;100.00
56811;BME280;42691;47.234;27.494;2023-02-13T09:51:32;101319.56;;;9.29;100.00
56811;BME280;42691;47.234;27.494;2023-02-13T09:54:15;101301.47;;;9.24;100.00
56811;BME280;42691;47.234;27.494;2023-02-13T09:56:50;101313.53;;;9.30;100.00
56811;BME280;42691;47.234;27.494;2023-02-13T09:59:55;101309.06;;;9.36;100.00
56811;BME280;42691;47.234;27.494;2023-02-13T10:05:36;101313.34;;;9.40;100.00
56811;BME280;42691;47.234;27.494;2023-02-13T10:08:26;101301.19;;;9.43;100.00
56811;BME280;42691;47.234;27.494;2023-02-13T10:16:15;101275.75;;;9.58;100.00
56811;BME280;42691;47.234;27.494;2023-02-13T10:18:49;101270.41;;;9.66;100.00
56811;BME280;42691;47.234;27.494;2023-02-13T10:21:20;101264.19;;;9.76;100.00
56811;BME280;42691;47.234;27.494;2023-02-13T10:23:49;101259.88;;;9.75;100.00
56811;BME280;42691;47.234;27.494;2023-02-13T10:26:19;101266.03;;;9.71;100.00
56811;BME280;42691;47.234;27.494;2023-02-13T10:31:38;101264.78;;;9.89;100.00
56811;BME280;42691;47.234;27.494;2023-02-13T10:34:05;101236.34;;;9.81;100.00
56811;BME280;42691;47.234;27.494;2023-02-13T10:36:39;101260.19;;;10.01;100.00
56811;BME280;42691;47.234;27.494;2023-02-13T10:41:52;101253.16;;;10.07;100.00
56811;BME280;42691;47.234;27.494;2023-02-13T10:50:34;101229.44;;;10.23;100.00
56811;BME280;42691;47.234;27.494;2023-02-13T10:53:16;101229.22;;;10.32;100.00
56811;BME280;42691;47.234;27.494;2023-02-13T11:03:32;101214.06;;;10.51;100.00
56811;BME280;42691;47.234;27.494;2023-02-13T11:06:00;101207.00;;;10.56;100.00
56811;BME280;42691;47.234;27.494;2023-02-13T11:08:37;101205.91;;;10.65;100.00
56811;BME280;42691;47.234;27.494;2023-02-13T11:11:31;101205.09;;;10.63;100.00
56811;BME280;42691;47.234;27.494;2023-02-13T11:14:14;101198.09;;;10.65;100.00
56811;BME280;42691;47.234;27.494;2023-02-13T11:19:20;101184.25;;;10.64;100.00
56811;BME280;42691;47.234;27.494;2023-02-13T11:21:47;101176.47;;;10.63;100.00
56811;BME280;42691;47.234;27.494;2023-02-13T11:24:22;101156.63;;;10.59;100.00
56811;BME280;42691;47.234;27.494;2023-02-13T11:26:56;101168.53;;;10.68;100.00
56811;BME280;42691;47.234;27.494;2023-02-13T11:29:24;101177.09;;;10.73;100.00
56811;BME280;42691;47.234;27.494;2023-02-13T11:32:09;101180.50;;;10.75;100.00
56811;BME280;42691;47.234;27.494;2023-02-13T11:34:42;101166.50;;;10.80;100.00
56811;BME280;42691;47.234;27.494;2023-02-13T11:37:23;101156.94;;;10.81;100.00
56811;BME280;42691;47.234;27.494;2023-02-13T11:39:51;101153.50;;;10.80;100.00
56811;BME280;42691;47.234;27.494;2023-02-13T11:44:59;101157.84;;;10.80;100.00
56811;BME280;42691;47.234;27.494;2023-02-13T11:47:43;101153.41;;;10.83;100.00
56811;BME280;42691;47.234;27.494;2023-02-13T11:50:28;101152.47;;;10.86;100.00
56811;BME280;42691;47.234;27.494;2023-02-13T11:53:07;101138.78;;;10.78;100.00
56811;BME280;42691;47.234;27.494;2023-02-13T11:55:40;101151.47;;;10.91;100.00
56811;BME280;42691;47.234;27.494;2023-02-13T12:00:37;101140.19;;;10.91;100.00
56811;BME280;42691;47.234;27.494;2023-02-13T12:03:29;101137.63;;;10.89;100.00
56811;BME280;42691;47.234;27.494;2023-02-13T12:08:33;101125.38;;;10.93;100.00
56811;BME280;42691;47.234;27.494;2023-02-13T12:11:00;101121.78;;;10.97;100.00
56811;BME280;42691;47.234;27.494;2023-02-13T12:13:36;101124.34;;;10.99;100.00
56811;BME280;42691;47.234;27.494;2023-02-13T12:16:34;101114.00;;;10.97;100.00
56811;BME280;42691;47.234;27.494;2023-02-13T12:19:05;101114.06;;;10.94;100.00
56811;BME280;42691;47.234;27.494;2023-02-13T12:29:54;101108.88;;;10.94;100.00
56811;BME280;42691;47.234;27.494;2023-02-13T12:43:45;101107.16;;;10.93;100.00
56811;BME280;42691;47.234;27.494;2023-02-13T12:46:36;101104.44;;;10.98;100.00
56811;BME280;42691;47.234;27.494;2023-02-13T12:54:27;101104.34;;;11.01;100.00
56811;BME280;42691;47.234;27.494;2023-02-13T13:02:25;101098.88;;;11.10;100.00
56811;BME280;42691;47.234;27.494;2023-02-13T13:05:16;101090.16;;;11.11;100.00
56811;BME280;42691;47.234;27.494;2023-02-13T13:08:07;101083.94;;;11.16;100.00
56811;BME280;42691;47.234;27.494;2023-02-13T13:16:25;101089.22;;;11.13;100.00
56811;BME280;42691;47.234;27.494;2023-02-13T13:21:50;101088.19;;;11.20;100.00
56811;BME280;42691;47.234;27.494;2023-02-13T13:24:59;101084.81;;;11.17;100.00
56811;BME280;42691;47.234;27.494;2023-02-13T13:27:41;101072.47;;;11.23;100.00
56811;BME280;42691;47.234;27.494;2023-02-13T13:30:17;101070.81;;;11.21;100.00
56811;BME280;42691;47.234;27.494;2023-02-13T13:32:44;101063.03;;;11.19;100.00
56811;BME280;42691;47.234;27.494;2023-02-13T13:35:15;101069.94;;;11.20;100.00
56811;BME280;42691;47.234;27.494;2023-02-13T13:37:48;101060.47;;;11.18;100.00
56811;BME280;42691;47.234;27.494;2023-02-13T13:43:26;101060.50;;;11.16;100.00
56811;BME280;42691;47.234;27.494;2023-02-13T13:46:13;101052.75;;;11.13;100.00
56811;BME280;42691;47.234;27.494;2023-02-13T13:51:15;101058.06;;;11.10;100.00
56811;BME280;42691;47.234;27.494;2023-02-13T14:07:40;101049.66;;;11.01;100.00
56811;BME280;42691;47.234;27.494;2023-02-13T14:26:12;101026.19;;;11.02;100.00
56811;BME280;42691;47.234;27.494;2023-02-13T14:28:37;101029.59;;;11.04;100.00
56811;BME280;42691;47.234;27.494;2023-02-13T14:31:19;101034.00;;;11.02;100.00
56811;BME280;42691;47.234;27.494;2023-02-13T14:33:54;101030.56;;;11.00;100.00
56811;BME280;42691;47.234;27.494;2023-02-13T14:36:20;101027.13;;;11.00;100.00
56811;BME280;42691;47.234;27.494;2023-02-13T14:41:44;101034.94;;;11.00;100.00
56811;BME280;42691;47.234;27.494;2023-02-13T14:44:31;101019.53;;;10.92;100.00
56811;BME280;42691;47.234;27.494;2023-02-13T14:47:21;101028.06;;;10.97;100.00
56811;BME280;42691;47.234;27.494;2023-02-13T14:49:46;101028.97;;;10.96;100.00
56811;BME280;42691;47.234;27.494;2023-02-13T14:52:22;101025.53;;;10.94;100.00
56811;BME280;42691;47.234;27.494;2023-02-13T14:55:02;101025.53;;;10.94;100.00
56811;BME280;42691;47.234;27.494;2023-02-13T14:57:46;101015.03;;;10.97;100.00
56811;BME280;42691;47.234;27.494;2023-02-13T15:02:45;101013.25;;;10.99;100.00
56811;BME280;42691;47.234;27.494;2023-02-13T15:05:16;101015.84;;;10.99;100.00
56811;BME280;42691;47.234;27.494;2023-02-13T15:07:58;101016.75;;;10.98;100.00
56811;BME280;42691;47.234;27.494;2023-02-13T15:10:48;101023.78;;;10.94;100.00
56811;BME280;42691;47.234;27.494;2023-02-13T15:13:37;101017.81;;;10.91;100.00
56811;BME280;42691;47.234;27.494;2023-02-13T15:16:06;101016.13;;;10.90;100.00
56811;BME280;42691;47.234;27.494;2023-02-13T15:18:39;101016.94;;;10.92;100.00
56811;BME280;42691;47.234;27.494;2023-02-13T15:21:07;101008.25;;;10.91;100.00
56811;BME280;42691;47.234;27.494;2023-02-13T15:23:37;101006.59;;;10.89;100.00
56811;BME280;42691;47.234;27.494;2023-02-13T15:26:06;101010.00;;;10.91;100.00
56811;BME280;42691;47.234;27.494;2023-02-13T15:28:33;101003.19;;;10.87;100.00
56811;BME280;42691;47.234;27.494;2023-02-13T15:31:02;101016.13;;;10.90;100.00
56811;BME280;42691;47.234;27.494;2023-02-13T15:33:32;101021.41;;;10.87;100.00
56811;BME280;42691;47.234;27.494;2023-02-13T15:36:03;101013.78;;;10.81;100.00
56811;BME280;42691;47.234;27.494;2023-02-13T15:41:20;101012.84;;;10.83;100.00
56811;BME280;42691;47.234;27.494;2023-02-13T15:43:50;101020.59;;;10.85;100.00
56811;BME280;42691;47.234;27.494;2023-02-13T15:46:17;101021.47;;;10.85;100.00
56811;BME280;42691;47.234;27.494;2023-02-13T15:48:44;101018.00;;;10.85;100.00